sensor_id;sensor_type;location;lat;lon;timestamp;P1;durP1;ratioP1;P2;durP2;ratioP2
18280;SDS011;9266;51.132;17.062;2024-02-26T00:02:17;60.37;;;38.83;;
18280;SDS011;9266;51.132;17.062;2024-02-26T00:04:44;64.10;;;40.33;;
18280;SDS011;9266;51.132;17.062;2024-02-26T00:07:11;50.53;;;36.20;;
18280;SDS011;9266;51.132;17.062;2024-02-26T00:09:38;62.23;;;38.77;;
18280;SDS011;9266;51.132;17.062;2024-02-26T00:12:05;54.43;;;36.03;;
18280;SDS011;9266;51.132;17.062;2024-02-26T00:14:33;54.43;;;36.30;;
18280;SDS011;9266;51.132;17.062;2024-02-26T00:17:02;52.63;;;36.20;;
18280;SDS011;9266;51.132;17.062;2024-02-26T00:19:29;50.27;;;35.47;;
18280;SDS011;9266;51.132;17.062;2024-02-26T00:21:56;62.27;;;39.03;;
18280;SDS011;9266;51.132;17.062;2024-02-26T00:24:23;55.00;;;36.97;;
18280;SDS011;9266;51.132;17.062;2024-02-26T00:26:50;61.30;;;39.13;;
18280;SDS011;9266;51.132;17.062;2024-02-26T00:29:19;54.97;;;36.13;;
18280;SDS011;9266;51.132;17.062;2024-02-26T00:31:46;53.17;;;34.20;;
18280;SDS011;9266;51.132;17.062;2024-02-26T00:34:15;53.87;;;36.83;;
18280;SDS011;9266;51.132;17.062;2024-02-26T00:36:42;54.23;;;33.53;;
18280;SDS011;9266;51.132;17.062;2024-02-26T00:39:09;54.70;;;33.33;;
18280;SDS011;9266;51.132;17.062;2024-02-26T00:41:38;49.87;;;32.90;;
18280;SDS011;9266;51.132;17.062;2024-02-26T00:44:06;49.30;;;31.17;;
18280;SDS011;9266;51.132;17.062;2024-02-26T00:46:33;46.20;;;31.40;;
18280;SDS011;9266;51.132;17.062;2024-02-26T00:49:00;46.87;;;30.90;;
18280;SDS011;9266;51.132;17.062;2024-02-26T00:51:29;46.07;;;30.33;;
18280;SDS011;9266;51.132;17.062;2024-02-26T00:53:56;44.73;;;28.70;;
18280;SDS011;9266;51.132;17.062;2024-02-26T00:56:23;35.80;;;27.47;;
18280;SDS011;9266;51.132;17.062;2024-02-26T00:58:50;41.93;;;30.83;;
18280;SDS011;9266;51.132;17.062;2024-02-26T01:01:17;40.50;;;27.63;;
18280;SDS011;9266;51.132;17.062;2024-02-26T01:03:45;38.73;;;26.40;;
18280;SDS011;9266;51.132;17.062;2024-02-26T01:06:12;36.20;;;25.47;;
18280;SDS011;9266;51.132;17.062;2024-02-26T01:08:40;41.30;;;26.47;;
18280;SDS011;9266;51.132;17.062;2024-02-26T01:11:07;37.83;;;25.97;;
18280;SDS011;9266;51.132;17.062;2024-02-26T01:13:34;40.07;;;26.90;;
18280;SDS011;9266;51.132;17.062;2024-02-26T01:16:01;41.27;;;28.07;;
18280;SDS011;9266;51.132;17.062;2024-02-26T01:18:28;36.93;;;25.80;;
18280;SDS011;9266;51.132;17.062;2024-02-26T01:20:55;39.40;;;26.97;;
18280;SDS011;9266;51.132;17.062;2024-02-26T01:23:22;36.27;;;25.50;;
18280;SDS011;9266;51.132;17.062;2024-02-26T01:25:50;34.03;;;24.47;;
18280;SDS011;9266;51.132;17.062;2024-02-26T01:28:17;39.57;;;26.33;;
18280;SDS011;9266;51.132;17.062;2024-02-26T01:30:44;40.83;;;26.63;;
18280;SDS011;9266;51.132;17.062;2024-02-26T01:33:11;33.97;;;23.87;;
18280;SDS011;9266;51.132;17.062;2024-02-26T01:35:38;38.60;;;25.13;;
18280;SDS011;9266;51.132;17.062;2024-02-26T01:38:05;34.83;;;24.07;;
18280;SDS011;9266;51.132;17.062;2024-02-26T01:40:32;34.50;;;24.13;;
18280;SDS011;9266;51.132;17.062;2024-02-26T01:43:01;35.87;;;23.87;;
18280;SDS011;9266;51.132;17.062;2024-02-26T01:45:28;34.50;;;23.17;;
18280;SDS011;9266;51.132;17.062;2024-02-26T01:47:55;30.40;;;22.90;;
18280;SDS011;9266;51.132;17.062;2024-02-26T01:50:23;36.37;;;23.13;;
18280;SDS011;9266;51.132;17.062;2024-02-26T01:52:51;33.37;;;23.73;;
18280;SDS011;9266;51.132;17.062;2024-02-26T01:55:20;30.70;;;22.63;;
18280;SDS011;9266;51.132;17.062;2024-02-26T01:57:48;32.40;;;23.17;;
18280;SDS011;9266;51.132;17.062;2024-02-26T02:00:18;34.40;;;22.83;;
18280;SDS011;9266;51.132;17.062;2024-02-26T02:02:46;35.93;;;23.00;;
18280;SDS011;9266;51.132;17.062;2024-02-26T02:05:14;35.43;;;24.23;;
18280;SDS011;9266;51.132;17.062;2024-02-26T02:07:43;34.40;;;24.30;;
18280;SDS011;9266;51.132;17.062;2024-02-26T02:10:10;36.77;;;25.03;;
18280;SDS011;9266;51.132;17.062;2024-02-26T02:12:37;38.23;;;25.70;;
18280;SDS011;9266;51.132;17.062;2024-02-26T02:15:05;37.43;;;25.63;;
18280;SDS011;9266;51.132;17.062;2024-02-26T02:17:34;38.93;;;28.00;;
18280;SDS011;9266;51.132;17.062;2024-02-26T02:20:01;47.43;;;30.07;;
18280;SDS011;9266;51.132;17.062;2024-02-26T02:22:30;40.37;;;28.37;;
18280;SDS011;9266;51.132;17.062;2024-02-26T02:24:58;43.00;;;28.00;;
18280;SDS011;9266;51.132;17.062;2024-02-26T02:27:26;38.83;;;26.77;;
18280;SDS011;9266;51.132;17.062;2024-02-26T02:29:53;40.17;;;28.57;;
18280;SDS011;9266;51.132;17.062;2024-02-26T02:32:20;42.20;;;28.40;;
18280;SDS011;9266;51.132;17.062;2024-02-26T02:34:49;41.20;;;27.73;;
18280;SDS011;9266;51.132;17.062;2024-02-26T02:37:16;39.43;;;28.17;;
18280;SDS011;9266;51.132;17.062;2024-02-26T02:39:44;43.23;;;27.63;;
18280;SDS011;9266;51.132;17.062;2024-02-26T02:42:11;41.60;;;26.00;;
18280;SDS011;9266;51.132;17.062;2024-02-26T02:44:38;38.70;;;26.37;;
18280;SDS011;9266;51.132;17.062;2024-02-26T02:47:05;36.50;;;26.13;;
18280;SDS011;9266;51.132;17.062;2024-02-26T02:49:32;38.47;;;25.33;;
18280;SDS011;9266;51.132;17.062;2024-02-26T02:51:59;39.10;;;26.77;;
18280;SDS011;9266;51.132;17.062;2024-02-26T02:54:26;39.63;;;27.37;;
18280;SDS011;9266;51.132;17.062;2024-02-26T02:56:55;39.67;;;27.80;;
18280;SDS011;9266;51.132;17.062;2024-02-26T02:59:22;38.27;;;27.50;;
18280;SDS011;9266;51.132;17.062;2024-02-26T03:01:49;40.40;;;27.87;;
18280;SDS011;9266;51.132;17.062;2024-02-26T03:04:16;39.80;;;27.40;;
18280;SDS011;9266;51.132;17.062;2024-02-26T03:06:42;41.40;;;28.20;;
18280;SDS011;9266;51.132;17.062;2024-02-26T03:09:09;42.70;;;27.97;;
18280;SDS011;9266;51.132;17.062;2024-02-26T03:11:36;40.03;;;28.77;;
18280;SDS011;9266;51.132;17.062;2024-02-26T03:14:05;42.80;;;27.97;;
18280;SDS011;9266;51.132;17.062;2024-02-26T03:16:32;42.07;;;28.73;;
18280;SDS011;9266;51.132;17.062;2024-02-26T03:18:59;40.80;;;27.17;;
18280;SDS011;9266;51.132;17.062;2024-02-26T03:21:26;38.60;;;27.53;;
18280;SDS011;9266;51.132;17.062;2024-02-26T03:23:54;42.10;;;27.77;;
18280;SDS011;9266;51.132;17.062;2024-02-26T03:26:21;37.03;;;27.03;;
18280;SDS011;9266;51.132;17.062;2024-02-26T03:28:48;39.90;;;27.87;;
18280;SDS011;9266;51.132;17.062;2024-02-26T03:31:16;44.07;;;27.43;;
18280;SDS011;9266;51.132;17.062;2024-02-26T03:33:44;40.70;;;27.33;;
18280;SDS011;9266;51.132;17.062;2024-02-26T03:36:11;38.17;;;27.17;;
18280;SDS011;9266;51.132;17.062;2024-02-26T03:38:38;39.97;;;27.47;;
18280;SDS011;9266;51.132;17.062;2024-02-26T03:41:04;37.67;;;25.00;;
18280;SDS011;9266;51.132;17.062;2024-02-26T03:43:33;36.00;;;25.03;;
18280;SDS011;9266;51.132;17.062;2024-02-26T03:46:00;39.10;;;26.70;;
18280;SDS011;9266;51.132;17.062;2024-02-26T03:48:29;39.73;;;27.13;;
18280;SDS011;9266;51.132;17.062;2024-02-26T03:50:55;43.10;;;24.97;;
18280;SDS011;9266;51.132;17.062;2024-02-26T03:53:22;35.33;;;24.17;;
18280;SDS011;9266;51.132;17.062;2024-02-26T03:55:49;38.27;;;25.27;;
18280;SDS011;9266;51.132;17.062;2024-02-26T03:58:17;35.07;;;23.60;;
18280;SDS011;9266;51.132;17.062;2024-02-26T04:00:44;38.67;;;25.60;;
18280;SDS011;9266;51.132;17.062;2024-02-26T04:03:12;33.63;;;23.47;;
18280;SDS011;9266;51.132;17.062;2024-02-26T04:05:41;39.53;;;25.77;;
18280;SDS011;9266;51.132;17.062;2024-02-26T04:08:07;34.53;;;23.53;;
18280;SDS011;9266;51.132;17.062;2024-02-26T04:10:35;37.23;;;23.60;;
18280;SDS011;9266;51.132;17.062;2024-02-26T04:13:04;35.77;;;24.83;;
18280;SDS011;9266;51.132;17.062;2024-02-26T04:15:31;37.80;;;25.20;;
18280;SDS011;9266;51.132;17.062;2024-02-26T04:17:58;36.53;;;23.83;;
18280;SDS011;9266;51.132;17.062;2024-02-26T04:20:25;44.43;;;29.27;;
18280;SDS011;9266;51.132;17.062;2024-02-26T04:22:53;57.07;;;34.23;;
18280;SDS011;9266;51.132;17.062;2024-02-26T04:25:20;58.63;;;35.63;;
18280;SDS011;9266;51.132;17.062;2024-02-26T04:27:47;62.03;;;37.80;;
18280;SDS011;9266;51.132;17.062;2024-02-26T04:30:14;57.67;;;37.43;;
18280;SDS011;9266;51.132;17.062;2024-02-26T04:32:42;56.23;;;35.13;;
18280;SDS011;9266;51.132;17.062;2024-02-26T04:35:09;61.77;;;38.23;;
18280;SDS011;9266;51.132;17.062;2024-02-26T04:37:36;60.27;;;37.10;;
18280;SDS011;9266;51.132;17.062;2024-02-26T04:40:05;71.47;;;41.43;;
18280;SDS011;9266;51.132;17.062;2024-02-26T04:42:33;76.97;;;45.47;;
18280;SDS011;9266;51.132;17.062;2024-02-26T04:45:00;73.93;;;44.77;;
18280;SDS011;9266;51.132;17.062;2024-02-26T04:47:27;69.83;;;39.23;;
18280;SDS011;9266;51.132;17.062;2024-02-26T04:49:55;55.10;;;35.83;;
18280;SDS011;9266;51.132;17.062;2024-02-26T04:52:22;61.53;;;37.40;;
18280;SDS011;9266;51.132;17.062;2024-02-26T04:54:49;55.30;;;35.40;;
18280;SDS011;9266;51.132;17.062;2024-02-26T04:57:17;51.37;;;33.30;;
18280;SDS011;9266;51.132;17.062;2024-02-26T04:59:44;58.70;;;35.43;;
18280;SDS011;9266;51.132;17.062;2024-02-26T05:02:11;64.77;;;36.30;;
18280;SDS011;9266;51.132;17.062;2024-02-26T05:04:39;62.57;;;34.90;;
18280;SDS011;9266;51.132;17.062;2024-02-26T05:07:06;43.17;;;27.10;;
18280;SDS011;9266;51.132;17.062;2024-02-26T05:09:33;50.50;;;30.17;;
18280;SDS011;9266;51.132;17.062;2024-02-26T05:12:00;51.63;;;31.27;;
18280;SDS011;9266;51.132;17.062;2024-02-26T05:14:28;49.20;;;30.60;;
18280;SDS011;9266;51.132;17.062;2024-02-26T05:16:55;45.40;;;27.77;;
18280;SDS011;9266;51.132;17.062;2024-02-26T05:19:22;44.30;;;29.07;;
18280;SDS011;9266;51.132;17.062;2024-02-26T05:21:49;50.27;;;30.40;;
18280;SDS011;9266;51.132;17.062;2024-02-26T05:24:16;45.57;;;29.33;;
18280;SDS011;9266;51.132;17.062;2024-02-26T05:26:43;47.30;;;30.20;;
18280;SDS011;9266;51.132;17.062;2024-02-26T05:29:11;51.17;;;31.93;;
18280;SDS011;9266;51.132;17.062;2024-02-26T05:31:41;50.60;;;31.73;;
18280;SDS011;9266;51.132;17.062;2024-02-26T05:34:08;46.07;;;28.60;;
18280;SDS011;9266;51.132;17.062;2024-02-26T05:36:35;53.13;;;33.17;;
18280;SDS011;9266;51.132;17.062;2024-02-26T05:39:03;43.07;;;29.80;;
18280;SDS011;9266;51.132;17.062;2024-02-26T05:41:30;45.40;;;30.07;;
18280;SDS011;9266;51.132;17.062;2024-02-26T05:43:58;46.97;;;29.17;;
18280;SDS011;9266;51.132;17.062;2024-02-26T05:46:25;49.77;;;31.67;;
18280;SDS011;9266;51.132;17.062;2024-02-26T05:48:53;47.83;;;29.63;;
18280;SDS011;9266;51.132;17.062;2024-02-26T05:51:20;47.57;;;31.07;;
18280;SDS011;9266;51.132;17.062;2024-02-26T05:53:47;52.63;;;32.43;;
18280;SDS011;9266;51.132;17.062;2024-02-26T05:56:19;48.70;;;33.00;;
18280;SDS011;9266;51.132;17.062;2024-02-26T05:58:46;53.93;;;31.90;;
18280;SDS011;9266;51.132;17.062;2024-02-26T06:01:15;47.63;;;31.87;;
18280;SDS011;9266;51.132;17.062;2024-02-26T06:03:42;48.03;;;31.07;;
18280;SDS011;9266;51.132;17.062;2024-02-26T06:06:11;52.30;;;31.97;;
18280;SDS011;9266;51.132;17.062;2024-02-26T06:08:39;46.47;;;31.40;;
18280;SDS011;9266;51.132;17.062;2024-02-26T06:11:06;48.47;;;31.40;;
18280;SDS011;9266;51.132;17.062;2024-02-26T06:13:33;51.10;;;32.03;;
18280;SDS011;9266;51.132;17.062;2024-02-26T06:16:00;48.77;;;30.50;;
18280;SDS011;9266;51.132;17.062;2024-02-26T06:18:28;43.00;;;29.80;;
18280;SDS011;9266;51.132;17.062;2024-02-26T06:20:55;50.57;;;32.00;;
18280;SDS011;9266;51.132;17.062;2024-02-26T06:23:23;48.20;;;32.13;;
18280;SDS011;9266;51.132;17.062;2024-02-26T06:25:51;44.10;;;31.07;;
18280;SDS011;9266;51.132;17.062;2024-02-26T06:28:18;45.43;;;29.57;;
18280;SDS011;9266;51.132;17.062;2024-02-26T06:30:45;41.40;;;27.53;;
18280;SDS011;9266;51.132;17.062;2024-02-26T06:33:12;33.17;;;25.83;;
18280;SDS011;9266;51.132;17.062;2024-02-26T06:35:39;39.87;;;28.07;;
18280;SDS011;9266;51.132;17.062;2024-02-26T06:38:06;41.93;;;28.43;;
18280;SDS011;9266;51.132;17.062;2024-02-26T06:40:35;39.73;;;27.50;;
18280;SDS011;9266;51.132;17.062;2024-02-26T06:43:02;40.57;;;29.30;;
18280;SDS011;9266;51.132;17.062;2024-02-26T06:45:30;44.33;;;31.17;;
18280;SDS011;9266;51.132;17.062;2024-02-26T06:47:57;40.93;;;32.37;;
18280;SDS011;9266;51.132;17.062;2024-02-26T06:50:24;41.97;;;31.10;;
18280;SDS011;9266;51.132;17.062;2024-02-26T06:52:51;44.53;;;30.57;;
18280;SDS011;9266;51.132;17.062;2024-02-26T06:55:18;46.90;;;29.57;;
18280;SDS011;9266;51.132;17.062;2024-02-26T06:57:47;40.77;;;26.83;;
18280;SDS011;9266;51.132;17.062;2024-02-26T07:00:14;36.77;;;24.80;;
18280;SDS011;9266;51.132;17.062;2024-02-26T07:02:42;37.27;;;24.73;;
18280;SDS011;9266;51.132;17.062;2024-02-26T07:05:09;32.73;;;23.13;;
18280;SDS011;9266;51.132;17.062;2024-02-26T07:07:36;28.33;;;21.03;;
18280;SDS011;9266;51.132;17.062;2024-02-26T07:10:03;31.63;;;20.57;;
18280;SDS011;9266;51.132;17.062;2024-02-26T07:12:31;28.60;;;19.03;;
18280;SDS011;9266;51.132;17.062;2024-02-26T07:15:00;27.37;;;18.33;;
18280;SDS011;9266;51.132;17.062;2024-02-26T07:17:27;27.43;;;19.23;;
18280;SDS011;9266;51.132;17.062;2024-02-26T07:19:54;25.07;;;18.43;;
18280;SDS011;9266;51.132;17.062;2024-02-26T07:22:21;26.40;;;19.73;;
18280;SDS011;9266;51.132;17.062;2024-02-26T07:24:50;27.73;;;19.87;;
18280;SDS011;9266;51.132;17.062;2024-02-26T07:27:17;28.43;;;20.20;;
18280;SDS011;9266;51.132;17.062;2024-02-26T07:29:46;29.57;;;20.33;;
18280;SDS011;9266;51.132;17.062;2024-02-26T07:32:14;30.37;;;20.73;;
18280;SDS011;9266;51.132;17.062;2024-02-26T07:34:41;27.57;;;20.47;;
18280;SDS011;9266;51.132;17.062;2024-02-26T07:37:09;29.27;;;21.70;;
18280;SDS011;9266;51.132;17.062;2024-02-26T07:39:36;28.23;;;21.17;;
18280;SDS011;9266;51.132;17.062;2024-02-26T07:42:04;28.63;;;21.37;;
18280;SDS011;9266;51.132;17.062;2024-02-26T07:44:31;31.83;;;22.40;;
18280;SDS011;9266;51.132;17.062;2024-02-26T07:46:58;25.83;;;20.97;;
18280;SDS011;9266;51.132;17.062;2024-02-26T07:49:27;26.33;;;19.73;;
18280;SDS011;9266;51.132;17.062;2024-02-26T07:51:54;27.93;;;20.70;;
18280;SDS011;9266;51.132;17.062;2024-02-26T07:54:23;26.80;;;19.53;;
18280;SDS011;9266;51.132;17.062;2024-02-26T07:56:50;25.70;;;18.97;;
18280;SDS011;9266;51.132;17.062;2024-02-26T07:59:17;27.37;;;18.10;;
18280;SDS011;9266;51.132;17.062;2024-02-26T08:01:44;25.60;;;18.63;;
18280;SDS011;9266;51.132;17.062;2024-02-26T08:04:16;24.33;;;18.80;;
18280;SDS011;9266;51.132;17.062;2024-02-26T08:06:44;22.27;;;16.07;;
18280;SDS011;9266;51.132;17.062;2024-02-26T08:09:11;23.27;;;17.80;;
18280;SDS011;9266;51.132;17.062;2024-02-26T08:11:38;21.53;;;17.23;;
18280;SDS011;9266;51.132;17.062;2024-02-26T08:14:05;25.40;;;17.93;;
18280;SDS011;9266;51.132;17.062;2024-02-26T08:16:32;23.80;;;16.47;;
18280;SDS011;9266;51.132;17.062;2024-02-26T08:18:59;24.40;;;16.63;;
18280;SDS011;9266;51.132;17.062;2024-02-26T08:21:26;23.80;;;16.30;;
18280;SDS011;9266;51.132;17.062;2024-02-26T08:23:55;19.00;;;15.10;;
18280;SDS011;9266;51.132;17.062;2024-02-26T08:26:21;19.40;;;14.33;;
18280;SDS011;9266;51.132;17.062;2024-02-26T08:28:49;19.83;;;15.60;;
18280;SDS011;9266;51.132;17.062;2024-02-26T08:31:16;19.90;;;14.50;;
18280;SDS011;9266;51.132;17.062;2024-02-26T08:33:43;20.53;;;15.30;;
18280;SDS011;9266;51.132;17.062;2024-02-26T08:36:11;17.87;;;13.63;;
18280;SDS011;9266;51.132;17.062;2024-02-26T08:38:38;18.90;;;14.13;;
18280;SDS011;9266;51.132;17.062;2024-02-26T08:41:06;18.83;;;14.73;;
18280;SDS011;9266;51.132;17.062;2024-02-26T08:43:33;19.73;;;13.07;;
18280;SDS011;9266;51.132;17.062;2024-02-26T08:46:00;17.70;;;12.20;;
18280;SDS011;9266;51.132;17.062;2024-02-26T08:48:28;15.77;;;12.03;;
18280;SDS011;9266;51.132;17.062;2024-02-26T08:50:55;15.07;;;11.17;;
18280;SDS011;9266;51.132;17.062;2024-02-26T08:53:22;15.73;;;11.00;;
18280;SDS011;9266;51.132;17.062;2024-02-26T08:55:49;14.17;;;10.27;;
18280;SDS011;9266;51.132;17.062;2024-02-26T08:58:17;13.77;;;9.47;;
18280;SDS011;9266;51.132;17.062;2024-02-26T09:00:45;14.77;;;10.13;;
18280;SDS011;9266;51.132;17.062;2024-02-26T09:03:12;12.03;;;9.63;;
18280;SDS011;9266;51.132;17.062;2024-02-26T09:05:39;12.20;;;9.57;;
18280;SDS011;9266;51.132;17.062;2024-02-26T09:08:06;13.40;;;10.00;;
18280;SDS011;9266;51.132;17.062;2024-02-26T09:10:34;13.97;;;10.17;;
18280;SDS011;9266;51.132;17.062;2024-02-26T09:13:01;11.37;;;8.77;;
18280;SDS011;9266;51.132;17.062;2024-02-26T09:15:29;9.53;;;8.13;;
18280;SDS011;9266;51.132;17.062;2024-02-26T09:17:56;10.07;;;7.50;;
18280;SDS011;9266;51.132;17.062;2024-02-26T09:20:23;9.30;;;7.47;;
18280;SDS011;9266;51.132;17.062;2024-02-26T09:22:50;9.53;;;6.37;;
18280;SDS011;9266;51.132;17.062;2024-02-26T09:25:17;9.47;;;6.77;;
18280;SDS011;9266;51.132;17.062;2024-02-26T09:27:44;8.43;;;6.70;;
18280;SDS011;9266;51.132;17.062;2024-02-26T09:30:12;10.87;;;6.43;;
18280;SDS011;9266;51.132;17.062;2024-02-26T09:32:45;8.93;;;6.10;;
18280;SDS011;9266;51.132;17.062;2024-02-26T09:35:13;9.90;;;6.83;;
18280;SDS011;9266;51.132;17.062;2024-02-26T09:37:40;8.20;;;6.23;;
18280;SDS011;9266;51.132;17.062;2024-02-26T09:40:09;9.93;;;6.13;;
18280;SDS011;9266;51.132;17.062;2024-02-26T09:42:37;10.43;;;6.47;;
18280;SDS011;9266;51.132;17.062;2024-02-26T09:45:11;8.63;;;6.10;;
18280;SDS011;9266;51.132;17.062;2024-02-26T09:47:45;10.27;;;5.60;;
18280;SDS011;9266;51.132;17.062;2024-02-26T09:50:15;7.93;;;6.63;;
18280;SDS011;9266;51.132;17.062;2024-02-26T09:52:47;7.27;;;6.30;;
18280;SDS011;9266;51.132;17.062;2024-02-26T09:55:15;6.03;;;5.23;;
18280;SDS011;9266;51.132;17.062;2024-02-26T09:57:44;8.57;;;6.30;;
18280;SDS011;9266;51.132;17.062;2024-02-26T10:00:13;11.03;;;5.93;;
18280;SDS011;9266;51.132;17.062;2024-02-26T10:02:46;8.60;;;5.17;;
18280;SDS011;9266;51.132;17.062;2024-02-26T10:05:14;6.67;;;4.63;;
18280;SDS011;9266;51.132;17.062;2024-02-26T10:07:44;7.73;;;5.10;;
18280;SDS011;9266;51.132;17.062;2024-02-26T10:10:11;6.80;;;5.57;;
18280;SDS011;9266;51.132;17.062;2024-02-26T10:12:39;7.93;;;5.57;;
18280;SDS011;9266;51.132;17.062;2024-02-26T10:15:07;7.83;;;5.40;;
18280;SDS011;9266;51.132;17.062;2024-02-26T10:17:34;9.73;;;4.80;;
18280;SDS011;9266;51.132;17.062;2024-02-26T10:20:14;6.23;;;5.30;;
18280;SDS011;9266;51.132;17.062;2024-02-26T10:22:42;8.63;;;5.17;;
18280;SDS011;9266;51.132;17.062;2024-02-26T10:25:10;6.87;;;4.97;;
18280;SDS011;9266;51.132;17.062;2024-02-26T10:27:37;7.50;;;4.73;;
18280;SDS011;9266;51.132;17.062;2024-02-26T10:30:13;7.73;;;4.77;;
18280;SDS011;9266;51.132;17.062;2024-02-26T10:32:44;8.70;;;5.37;;
18280;SDS011;9266;51.132;17.062;2024-02-26T10:35:11;5.67;;;4.90;;
18280;SDS011;9266;51.132;17.062;2024-02-26T10:37:39;9.33;;;6.03;;
18280;SDS011;9266;51.132;17.062;2024-02-26T10:40:09;7.03;;;5.27;;
18280;SDS011;9266;51.132;17.062;2024-02-26T10:42:37;9.83;;;5.80;;
18280;SDS011;9266;51.132;17.062;2024-02-26T10:45:04;7.93;;;5.53;;
18280;SDS011;9266;51.132;17.062;2024-02-26T10:47:32;9.17;;;5.93;;
18280;SDS011;9266;51.132;17.062;2024-02-26T10:49:59;7.60;;;6.03;;
18280;SDS011;9266;51.132;17.062;2024-02-26T10:52:28;7.17;;;5.50;;
18280;SDS011;9266;51.132;17.062;2024-02-26T10:55:01;8.10;;;6.03;;
18280;SDS011;9266;51.132;17.062;2024-02-26T10:57:29;9.43;;;6.17;;
18280;SDS011;9266;51.132;17.062;2024-02-26T10:59:59;8.27;;;6.37;;
18280;SDS011;9266;51.132;17.062;2024-02-26T11:02:29;7.17;;;5.27;;
18280;SDS011;9266;51.132;17.062;2024-02-26T11:04:58;7.80;;;5.83;;
18280;SDS011;9266;51.132;17.062;2024-02-26T11:07:28;8.97;;;5.67;;
18280;SDS011;9266;51.132;17.062;2024-02-26T11:09:57;7.40;;;5.87;;
18280;SDS011;9266;51.132;17.062;2024-02-26T11:12:27;9.13;;;6.20;;
18280;SDS011;9266;51.132;17.062;2024-02-26T11:14:55;9.30;;;6.33;;
18280;SDS011;9266;51.132;17.062;2024-02-26T11:17:23;7.43;;;5.90;;
18280;SDS011;9266;51.132;17.062;2024-02-26T11:19:56;9.30;;;6.20;;
18280;SDS011;9266;51.132;17.062;2024-02-26T11:22:24;8.20;;;6.30;;
18280;SDS011;9266;51.132;17.062;2024-02-26T11:24:52;8.37;;;6.17;;
18280;SDS011;9266;51.132;17.062;2024-02-26T11:27:24;9.07;;;5.43;;
18280;SDS011;9266;51.132;17.062;2024-02-26T11:29:56;7.90;;;5.80;;
18280;SDS011;9266;51.132;17.062;2024-02-26T11:32:26;6.93;;;5.40;;
18280;SDS011;9266;51.132;17.062;2024-02-26T11:34:55;7.43;;;5.37;;
18280;SDS011;9266;51.132;17.062;2024-02-26T11:37:22;7.67;;;5.57;;
18280;SDS011;9266;51.132;17.062;2024-02-26T11:39:51;7.90;;;5.37;;
18280;SDS011;9266;51.132;17.062;2024-02-26T11:42:22;6.03;;;5.13;;
18280;SDS011;9266;51.132;17.062;2024-02-26T11:44:51;5.90;;;4.60;;
18280;SDS011;9266;51.132;17.062;2024-02-26T11:47:19;9.73;;;5.70;;
18280;SDS011;9266;51.132;17.062;2024-02-26T11:49:47;10.37;;;5.03;;
18280;SDS011;9266;51.132;17.062;2024-02-26T11:52:14;6.80;;;3.43;;
18280;SDS011;9266;51.132;17.062;2024-02-26T11:54:45;6.13;;;4.00;;
18280;SDS011;9266;51.132;17.062;2024-02-26T11:57:20;7.63;;;3.67;;
18280;SDS011;9266;51.132;17.062;2024-02-26T11:59:49;4.73;;;3.77;;
18280;SDS011;9266;51.132;17.062;2024-02-26T12:05:23;5.80;;;4.07;;
18280;SDS011;9266;51.132;17.062;2024-02-26T12:07:54;5.03;;;3.73;;
18280;SDS011;9266;51.132;17.062;2024-02-26T12:10:26;4.20;;;3.40;;
18280;SDS011;9266;51.132;17.062;2024-02-26T12:12:55;6.00;;;3.60;;
18280;SDS011;9266;51.132;17.062;2024-02-26T12:15:31;5.00;;;3.63;;
18280;SDS011;9266;51.132;17.062;2024-02-26T12:18:00;5.57;;;3.80;;
18280;SDS011;9266;51.132;17.062;2024-02-26T12:20:28;6.17;;;3.80;;
18280;SDS011;9266;51.132;17.062;2024-02-26T12:22:55;6.47;;;3.70;;
18280;SDS011;9266;51.132;17.062;2024-02-26T12:25:24;6.60;;;3.83;;
18280;SDS011;9266;51.132;17.062;2024-02-26T12:27:52;4.80;;;3.50;;
18280;SDS011;9266;51.132;17.062;2024-02-26T12:30:20;6.70;;;3.47;;
18280;SDS011;9266;51.132;17.062;2024-02-26T12:32:48;5.83;;;3.30;;
18280;SDS011;9266;51.132;17.062;2024-02-26T12:35:17;6.63;;;3.37;;
18280;SDS011;9266;51.132;17.062;2024-02-26T12:37:44;3.83;;;3.00;;
18280;SDS011;9266;51.132;17.062;2024-02-26T12:40:12;5.67;;;3.27;;
18280;SDS011;9266;51.132;17.062;2024-02-26T12:42:40;5.47;;;3.80;;
18280;SDS011;9266;51.132;17.062;2024-02-26T12:45:07;7.10;;;4.00;;
18280;SDS011;9266;51.132;17.062;2024-02-26T12:47:36;5.27;;;3.60;;
18280;SDS011;9266;51.132;17.062;2024-02-26T12:50:06;4.30;;;3.37;;
18280;SDS011;9266;51.132;17.062;2024-02-26T12:52:34;5.23;;;3.57;;
18280;SDS011;9266;51.132;17.062;2024-02-26T12:55:04;9.50;;;4.53;;
18280;SDS011;9266;51.132;17.062;2024-02-26T12:57:33;6.13;;;3.90;;
18280;SDS011;9266;51.132;17.062;2024-02-26T13:00:02;7.70;;;4.77;;
18280;SDS011;9266;51.132;17.062;2024-02-26T13:02:31;6.93;;;4.27;;
18280;SDS011;9266;51.132;17.062;2024-02-26T13:04:59;6.77;;;4.50;;
18280;SDS011;9266;51.132;17.062;2024-02-26T13:07:29;5.30;;;3.37;;
18280;SDS011;9266;51.132;17.062;2024-02-26T13:09:56;7.13;;;3.80;;
18280;SDS011;9266;51.132;17.062;2024-02-26T13:12:24;7.43;;;3.90;;
18280;SDS011;9266;51.132;17.062;2024-02-26T13:14:58;5.30;;;3.97;;
18280;SDS011;9266;51.132;17.062;2024-02-26T13:17:25;4.50;;;3.67;;
18280;SDS011;9266;51.132;17.062;2024-02-26T13:19:53;5.17;;;3.70;;
18280;SDS011;9266;51.132;17.062;2024-02-26T13:22:20;5.97;;;3.50;;
18280;SDS011;9266;51.132;17.062;2024-02-26T13:24:54;6.03;;;3.90;;
18280;SDS011;9266;51.132;17.062;2024-02-26T13:27:22;4.77;;;3.50;;
18280;SDS011;9266;51.132;17.062;2024-02-26T13:29:50;4.20;;;3.63;;
18280;SDS011;9266;51.132;17.062;2024-02-26T13:32:33;7.30;;;3.90;;
18280;SDS011;9266;51.132;17.062;2024-02-26T13:35:07;9.47;;;4.73;;
18280;SDS011;9266;51.132;17.062;2024-02-26T13:37:35;6.70;;;3.63;;
18280;SDS011;9266;51.132;17.062;2024-02-26T13:40:08;5.83;;;4.00;;
18280;SDS011;9266;51.132;17.062;2024-02-26T13:42:36;10.40;;;3.63;;
18280;SDS011;9266;51.132;17.062;2024-02-26T13:45:04;5.80;;;3.80;;
18280;SDS011;9266;51.132;17.062;2024-02-26T13:47:32;8.73;;;3.90;;
18280;SDS011;9266;51.132;17.062;2024-02-26T13:49:59;4.93;;;3.67;;
18280;SDS011;9266;51.132;17.062;2024-02-26T13:52:27;6.07;;;3.80;;
18280;SDS011;9266;51.132;17.062;2024-02-26T13:54:54;4.77;;;3.27;;
18280;SDS011;9266;51.132;17.062;2024-02-26T13:57:22;6.77;;;4.13;;
18280;SDS011;9266;51.132;17.062;2024-02-26T13:59:49;4.70;;;3.80;;
18280;SDS011;9266;51.132;17.062;2024-02-26T14:02:17;6.43;;;3.40;;
18280;SDS011;9266;51.132;17.062;2024-02-26T14:04:43;7.13;;;4.10;;
18280;SDS011;9266;51.132;17.062;2024-02-26T14:07:11;7.57;;;3.90;;
18280;SDS011;9266;51.132;17.062;2024-02-26T14:09:38;5.60;;;3.57;;
18280;SDS011;9266;51.132;17.062;2024-02-26T14:12:05;4.17;;;3.23;;
18280;SDS011;9266;51.132;17.062;2024-02-26T14:14:34;5.30;;;3.37;;
18280;SDS011;9266;51.132;17.062;2024-02-26T14:17:03;5.33;;;3.60;;
18280;SDS011;9266;51.132;17.062;2024-02-26T14:19:31;7.33;;;4.20;;
18280;SDS011;9266;51.132;17.062;2024-02-26T14:21:58;5.37;;;3.70;;
18280;SDS011;9266;51.132;17.062;2024-02-26T14:24:25;5.60;;;3.77;;
18280;SDS011;9266;51.132;17.062;2024-02-26T14:26:52;6.33;;;3.40;;
18280;SDS011;9266;51.132;17.062;2024-02-26T14:29:18;5.17;;;3.30;;
18280;SDS011;9266;51.132;17.062;2024-02-26T14:31:47;5.43;;;3.50;;
18280;SDS011;9266;51.132;17.062;2024-02-26T14:34:14;4.53;;;3.73;;
18280;SDS011;9266;51.132;17.062;2024-02-26T14:36:43;5.60;;;3.80;;
18280;SDS011;9266;51.132;17.062;2024-02-26T14:39:10;4.20;;;3.60;;